createdAt,value
2019-05-16T00:04:48.209Z,9.15
2019-05-16T00:05:53.231Z,9.05
2019-05-16T00:08:48.095Z,9.00
2019-05-16T00:09:48.250Z,8.95
2019-05-16T00:10:48.589Z,9.08
2019-05-16T00:11:45.867Z,9.02
2019-05-16T00:13:45.778Z,8.93
2019-05-16T00:14:46.137Z,8.95
2019-05-16T00:16:48.298Z,8.95
2019-05-16T00:17:48.588Z,8.95
2019-05-16T00:18:47.777Z,8.97
2019-05-16T00:20:45.442Z,9.08
2019-05-16T00:21:45.409Z,8.92
2019-05-16T00:22:45.360Z,8.95
2019-05-16T00:23:45.516Z,8.96
2019-05-16T00:24:45.269Z,9.00
2019-05-16T00:25:45.216Z,9.02
2019-05-16T00:26:45.181Z,8.89
2019-05-16T00:28:45.081Z,8.97
2019-05-16T00:29:45.919Z,8.97
2019-05-16T00:31:44.938Z,8.89
2019-05-16T00:33:48.504Z,8.96
2019-05-16T00:34:44.799Z,8.96
2019-05-16T00:37:45.347Z,8.99
2019-05-16T00:38:44.623Z,8.95
2019-05-16T00:44:54.472Z,8.95
2019-05-16T00:45:54.406Z,9.00
2019-05-16T00:46:54.403Z,9.02
2019-05-16T00:48:54.267Z,9.03
2019-05-16T00:49:54.535Z,9.05
2019-05-16T00:52:54.702Z,9.09
2019-05-16T00:53:54.758Z,9.11
2019-05-16T00:55:54.150Z,9.13
2019-05-16T00:56:53.904Z,9.12
2019-05-16T00:59:53.768Z,9.00
2019-05-16T01:00:53.714Z,9.02
2019-05-16T01:01:53.975Z,9.15
2019-05-16T01:02:54.339Z,9.12
2019-05-16T01:04:53.535Z,9.11
2019-05-16T01:05:53.694Z,9.11
2019-05-16T01:07:53.404Z,9.11
2019-05-16T01:08:53.349Z,9.02
2019-05-16T01:10:54.172Z,9.08
2019-05-16T01:11:53.211Z,9.08
2019-05-16T01:13:53.116Z,9.11
2019-05-16T01:15:53.027Z,9.05
2019-05-16T01:16:53.281Z,9.08
2019-05-16T01:17:53.140Z,9.13
2019-05-16T01:19:53.451Z,9.03
2019-05-16T01:21:52.948Z,8.99
2019-05-16T01:22:52.705Z,8.93
2019-05-16T01:23:52.659Z,9.00
2019-05-16T01:25:52.771Z,9.00
2019-05-16T01:26:52.517Z,8.89
2019-05-16T01:27:52.870Z,8.97
2019-05-16T01:28:52.739Z,8.95
2019-05-16T01:29:52.790Z,8.97
2019-05-16T01:30:52.538Z,8.92
2019-05-16T01:31:53.003Z,8.92
2019-05-16T01:32:52.235Z,8.95
2019-05-16T01:34:52.868Z,8.97
2019-05-16T01:35:52.101Z,8.95
2019-05-16T01:36:52.061Z,8.87
2019-05-16T01:37:52.217Z,8.90
2019-05-16T01:38:51.962Z,8.93
2019-05-16T01:39:51.918Z,8.92
2019-05-16T01:40:51.879Z,8.90
2019-05-16T01:41:51.832Z,8.87
2019-05-16T01:44:52.200Z,8.87
2019-05-16T01:45:51.642Z,8.89
2019-05-16T01:46:51.601Z,8.82
2019-05-16T01:47:52.654Z,8.86
2019-05-16T01:48:53.028Z,8.87
2019-05-16T01:49:51.974Z,8.95
2019-05-16T01:51:51.371Z,8.86
2019-05-16T01:53:51.879Z,8.86
2019-05-16T01:54:51.229Z,8.90
2019-05-16T01:55:51.380Z,8.90
2019-05-16T01:56:51.139Z,8.87
2019-05-16T02:01:02.060Z,8.90
2019-05-16T02:01:51.106Z,8.86
2019-05-16T02:02:51.269Z,8.87
2019-05-16T02:03:50.820Z,8.93
2019-05-16T02:04:50.764Z,8.95
2019-05-16T02:07:51.036Z,8.90
2019-05-16T02:08:50.586Z,8.90
2019-05-16T02:09:50.742Z,8.92
2019-05-16T02:10:50.692Z,8.95
2019-05-16T02:11:50.648Z,8.96
2019-05-16T02:14:50.309Z,9.02
2019-05-16T02:15:50.567Z,9.00
2019-05-16T02:16:50.409Z,8.96
2019-05-16T02:17:50.571Z,8.87
2019-05-16T02:18:50.719Z,8.90
2019-05-16T02:21:50.612Z,8.92
2019-05-16T02:22:49.941Z,9.00
2019-05-16T02:23:51.667Z,9.03
2019-05-16T02:24:50.727Z,8.89
2019-05-16T02:25:50.204Z,8.87
2019-05-16T02:27:49.703Z,8.89
2019-05-16T02:28:50.797Z,8.89
2019-05-16T02:29:50.682Z,8.89
2019-05-16T02:30:51.516Z,8.95
2019-05-16T02:31:51.334Z,8.99
2019-05-16T02:33:51.040Z,8.93
2019-05-16T02:34:51.436Z,8.96
2019-05-16T02:35:51.636Z,8.99
2019-05-16T02:37:10.546Z,9.03
2019-05-16T02:37:51.665Z,9.12
2019-05-16T02:40:54.369Z,9.08
2019-05-16T02:42:51.505Z,9.15
2019-05-16T02:45:51.686Z,9.18
2019-05-16T02:46:50.833Z,9.11
2019-05-16T02:47:51.339Z,9.09
2019-05-16T02:49:50.497Z,9.13
2019-05-16T02:50:51.260Z,9.19
2019-05-16T02:51:51.103Z,9.21
2019-05-16T02:52:51.369Z,9.19
2019-05-16T02:53:51.093Z,9.22
2019-05-16T02:54:51.736Z,9.26
2019-05-16T02:55:51.353Z,9.19
2019-05-16T02:56:50.600Z,9.29
2019-05-16T02:57:50.964Z,9.22
2019-05-16T02:58:51.697Z,9.24
2019-05-16T02:59:50.935Z,9.24
2019-05-16T03:00:51.228Z,9.22
2019-05-16T03:01:51.772Z,9.33
2019-05-16T03:02:50.469Z,9.37
2019-05-16T03:03:51.349Z,9.34
2019-05-16T03:04:51.389Z,9.42
2019-05-16T03:07:48.057Z,9.34
2019-05-16T03:08:50.704Z,9.34
2019-05-16T03:09:47.770Z,9.39
2019-05-16T03:11:50.825Z,9.39
2019-05-16T03:12:47.619Z,9.39
2019-05-16T03:13:51.107Z,9.39
2019-05-16T03:14:50.386Z,9.44
2019-05-16T03:15:47.489Z,9.34
2019-05-16T03:16:50.413Z,9.44
2019-05-16T03:18:47.345Z,9.44
2019-05-16T03:20:47.256Z,9.51
2019-05-16T03:21:50.673Z,9.42
2019-05-16T03:22:47.172Z,9.51
2019-05-16T03:23:50.590Z,9.42
2019-05-16T03:24:47.783Z,9.49
2019-05-16T03:25:50.546Z,9.49
2019-05-16T03:26:51.257Z,9.45
2019-05-16T03:27:47.878Z,9.40
2019-05-16T03:28:46.888Z,9.49
2019-05-16T03:30:46.999Z,9.47
2019-05-16T03:32:46.920Z,9.54
2019-05-16T03:35:46.571Z,9.59
2019-05-16T03:36:46.723Z,9.56
2019-05-16T03:37:55.670Z,9.55
2019-05-16T03:38:46.738Z,9.59
2019-05-16T03:39:50.879Z,9.52
2019-05-16T03:40:46.336Z,9.56
2019-05-16T03:41:46.282Z,9.52
2019-05-16T03:42:46.651Z,9.58
2019-05-16T03:43:46.202Z,9.52
2019-05-16T03:44:46.773Z,9.56
2019-05-16T03:45:46.313Z,9.52
2019-05-16T03:46:46.262Z,9.49
2019-05-16T03:47:46.010Z,9.58
2019-05-16T03:49:45.924Z,9.59
2019-05-16T03:51:46.044Z,9.49
2019-05-16T03:52:45.788Z,9.49
2019-05-16T03:53:45.950Z,9.52
2019-05-16T03:54:45.693Z,9.51
2019-05-16T03:55:46.459Z,9.58
2019-05-16T03:57:45.749Z,9.54
2019-05-16T04:00:46.305Z,9.58
2019-05-16T04:04:45.234Z,9.54
2019-05-16T04:05:45.386Z,9.54
2019-05-16T04:11:11.901Z,9.52
2019-05-16T04:14:11.021Z,9.55
2019-05-16T04:15:11.863Z,9.59
2019-05-16T04:16:11.896Z,9.62
2019-05-16T04:17:11.113Z,9.56
2019-05-16T04:18:11.367Z,9.64
2019-05-16T04:20:12.148Z,9.63
2019-05-16T04:21:11.719Z,9.67
2019-05-16T04:22:10.631Z,9.69
2019-05-16T04:23:11.308Z,9.66
2019-05-16T04:24:12.183Z,9.72
2019-05-16T04:25:11.666Z,9.73
2019-05-16T04:26:11.342Z,9.73
2019-05-16T04:29:11.953Z,9.80
2019-05-16T04:30:11.586Z,9.77
2019-05-16T04:31:10.957Z,9.73
2019-05-16T04:35:11.384Z,9.87
2019-05-16T04:39:11.898Z,10.06
2019-05-16T04:40:12.146Z,10.10
2019-05-16T04:43:11.418Z,10.17
2019-05-16T04:44:11.713Z,10.21
2019-05-16T04:45:11.931Z,10.23
2019-05-16T04:46:11.678Z,10.30
2019-05-16T04:47:11.000Z,10.27
2019-05-16T04:48:11.198Z,10.28
2019-05-16T04:49:11.178Z,10.24
2019-05-16T04:50:11.637Z,10.36
2019-05-16T04:51:10.577Z,10.39
2019-05-16T04:52:11.313Z,10.33
2019-05-16T04:54:11.443Z,10.38
2019-05-16T04:56:11.054Z,10.46
2019-05-16T04:57:11.843Z,10.46
2019-05-16T04:58:10.672Z,10.51
2019-05-16T04:59:15.938Z,10.53
2019-05-16T05:01:11.072Z,10.64
2019-05-16T05:03:11.706Z,10.64
2019-05-16T05:04:14.792Z,10.61
2019-05-16T05:07:11.189Z,10.76
2019-05-16T05:08:10.792Z,10.77
2019-05-16T05:09:11.396Z,10.72
2019-05-16T05:10:10.970Z,10.80
2019-05-16T05:11:10.658Z,10.82
2019-05-16T05:13:10.998Z,10.86
2019-05-16T05:14:10.470Z,10.94
2019-05-16T05:16:10.605Z,10.90
2019-05-16T05:17:10.435Z,10.94
2019-05-16T05:18:10.129Z,10.90
2019-05-16T05:19:10.765Z,10.89
2019-05-16T05:23:09.859Z,10.98
2019-05-16T05:24:10.662Z,10.97
2019-05-16T05:25:10.631Z,10.94
2019-05-16T05:26:07.932Z,10.94
2019-05-16T05:27:07.611Z,11.07
2019-05-16T05:28:09.871Z,11.05
2019-05-16T05:29:07.509Z,11.04
2019-05-16T05:32:13.938Z,11.05
2019-05-16T05:33:10.025Z,11.07
2019-05-16T05:34:07.284Z,11.08
2019-05-16T05:39:11.952Z,11.23
2019-05-16T05:40:07.211Z,11.23
2019-05-16T05:42:06.921Z,11.34
2019-05-16T05:43:07.076Z,11.30
2019-05-16T05:44:07.033Z,11.27
2019-05-16T05:45:06.984Z,11.31
2019-05-16T05:46:07.153Z,11.26
2019-05-16T05:48:06.649Z,11.27
2019-05-16T05:49:06.596Z,11.31
2019-05-16T05:51:06.716Z,11.43
2019-05-16T05:53:06.621Z,11.44
2019-05-16T05:54:06.793Z,11.43
2019-05-16T05:55:07.144Z,11.40
2019-05-16T05:56:06.486Z,11.48
2019-05-16T05:58:06.394Z,11.48
2019-05-16T05:59:07.037Z,11.49
2019-05-16T06:00:06.106Z,11.60
2019-05-16T06:01:06.470Z,11.58
2019-05-16T06:03:06.171Z,11.60
2019-05-16T06:05:05.880Z,11.65
2019-05-16T06:06:06.139Z,11.71
2019-05-16T06:09:05.696Z,11.86
2019-05-16T06:10:05.628Z,11.76
2019-05-16T06:11:05.812Z,11.67
2019-05-16T06:14:05.476Z,11.71
2019-05-16T06:15:09.063Z,11.86
2019-05-16T06:16:05.378Z,11.85
2019-05-16T06:17:05.339Z,11.70
2019-05-16T06:18:05.298Z,11.85
2019-05-16T06:19:06.059Z,11.81
2019-05-16T06:20:05.417Z,11.85
2019-05-16T06:23:05.346Z,11.89
2019-05-16T06:26:05.149Z,11.93
2019-05-16T06:29:05.074Z,11.99
2019-05-16T06:30:05.437Z,11.96
2019-05-16T06:31:04.705Z,11.97
2019-05-16T06:35:05.442Z,11.93
2019-05-16T06:36:04.482Z,11.91
2019-05-16T06:37:04.636Z,12.02
2019-05-16T06:40:04.502Z,12.02
2019-05-16T06:42:04.201Z,12.02
2019-05-16T06:43:04.475Z,12.07
2019-05-16T06:45:04.386Z,12.03
2019-05-16T06:46:04.538Z,12.00
2019-05-16T06:47:15.762Z,11.99
2019-05-16T06:48:03.942Z,12.02
2019-05-16T06:49:04.096Z,12.08
2019-05-16T06:54:03.661Z,12.08
2019-05-16T06:55:03.626Z,12.11
2019-05-16T06:56:03.779Z,12.07
2019-05-16T06:58:03.493Z,12.17
2019-05-16T06:59:04.360Z,12.08
2019-05-16T07:00:03.423Z,12.07
2019-05-16T07:02:03.306Z,12.08
2019-05-16T07:03:03.465Z,12.18
2019-05-16T07:04:05.139Z,12.12
2019-05-16T07:05:03.480Z,12.07
2019-05-16T07:08:03.038Z,12.15
2019-05-16T07:09:03.399Z,12.15
2019-05-16T07:12:02.861Z,12.05
2019-05-16T07:13:02.811Z,12.03
2019-05-16T07:15:02.924Z,12.02
2019-05-16T07:17:02.638Z,12.15
2019-05-16T07:18:03.502Z,12.25
2019-05-16T07:20:02.496Z,12.18
2019-05-16T07:21:02.654Z,12.17
2019-05-16T07:22:02.407Z,12.25
2019-05-16T07:23:02.367Z,12.25
2019-05-16T07:25:02.476Z,12.32
2019-05-16T07:27:03.095Z,12.32
2019-05-16T07:28:02.139Z,12.28
2019-05-16T07:29:02.067Z,12.36
2019-05-16T07:30:02.125Z,12.36
2019-05-16T07:32:02.159Z,12.25
2019-05-16T07:34:01.862Z,12.36
2019-05-16T07:35:01.883Z,12.40
2019-05-16T07:37:01.738Z,12.47
2019-05-16T07:38:01.686Z,12.50
2019-05-16T07:39:01.960Z,12.61
2019-05-16T07:40:16.264Z,12.62
2019-05-16T07:41:01.961Z,12.72
2019-05-16T07:42:01.507Z,12.80
2019-05-16T07:43:02.073Z,12.90
2019-05-16T07:44:01.423Z,12.90
2019-05-16T07:45:01.688Z,12.88
2019-05-16T07:48:01.248Z,13.06
2019-05-16T07:49:01.487Z,13.05
2019-05-16T07:51:01.387Z,13.03
2019-05-16T07:53:01.018Z,13.20
2019-05-16T07:54:01.176Z,13.16
2019-05-16T07:55:03.868Z,13.19
2019-05-16T07:56:00.883Z,13.21
2019-05-16T07:57:11.881Z,13.12
2019-05-16T07:59:00.989Z,13.21
2019-05-16T08:01:07.364Z,13.11
2019-05-16T08:02:00.919Z,13.12
2019-05-16T08:03:00.881Z,13.12
2019-05-16T08:04:00.531Z,13.17
2019-05-16T08:05:00.886Z,13.17
2019-05-16T08:06:01.846Z,13.30
2019-05-16T08:07:00.791Z,13.21
2019-05-16T08:09:00.403Z,13.23
2019-05-16T08:11:01.408Z,13.19
2019-05-16T08:12:02.248Z,13.16
2019-05-16T08:13:03.307Z,13.33
2019-05-16T08:14:01.091Z,13.26
2019-05-16T08:18:03.176Z,13.31
2019-05-16T08:19:00.882Z,13.37
2019-05-16T08:20:00.444Z,13.33
2019-05-16T08:22:01.373Z,13.40
2019-05-16T08:24:06.461Z,13.43
2019-05-16T08:25:00.319Z,13.40
2019-05-16T08:26:01.190Z,13.42
2019-05-16T08:27:01.304Z,13.47
2019-05-16T08:28:01.125Z,13.33
2019-05-16T08:29:02.096Z,13.52
2019-05-16T08:30:02.486Z,13.52
2019-05-16T08:31:00.912Z,13.58
2019-05-16T08:33:02.422Z,13.55
2019-05-16T08:34:00.898Z,13.60
2019-05-16T08:35:01.031Z,13.71
2019-05-16T08:39:01.156Z,13.80
2019-05-16T08:40:00.341Z,13.86
2019-05-16T08:42:07.826Z,13.86
2019-05-16T08:43:00.444Z,13.98
2019-05-16T08:45:01.845Z,14.16
2019-05-16T08:47:05.639Z,14.28
2019-05-16T08:48:00.321Z,14.26
2019-05-16T08:50:00.675Z,14.38
2019-05-16T08:51:02.882Z,14.44
2019-05-16T08:52:01.282Z,14.41
2019-05-16T08:54:01.434Z,14.61
2019-05-16T08:55:03.113Z,14.62
2019-05-16T08:56:02.290Z,14.79
2019-05-16T08:57:14.398Z,14.73
2019-05-16T08:57:58.124Z,14.70
2019-05-16T08:58:58.083Z,14.85
2019-05-16T09:01:01.926Z,14.71
2019-05-16T09:05:04.376Z,14.79
2019-05-16T09:05:57.781Z,14.79
2019-05-16T09:08:00.818Z,14.71
2019-05-16T09:09:05.055Z,14.71
2019-05-16T09:10:31.814Z,13.37
2019-05-16T09:11:09.077Z,14.74
2019-05-16T09:11:57.716Z,14.89
2019-05-16T09:12:57.684Z,14.79
2019-05-16T09:13:57.429Z,14.86
2019-05-16T09:15:57.543Z,14.79
2019-05-16T09:17:59.775Z,14.81
2019-05-16T09:18:57.694Z,14.85
2019-05-16T09:20:57.873Z,14.78
2019-05-16T09:22:57.942Z,14.81
2019-05-16T09:24:57.749Z,14.86
2019-05-16T09:25:58.394Z,14.85
2019-05-16T09:27:57.047Z,14.97
2019-05-16T09:28:57.450Z,14.89
2019-05-16T09:29:57.097Z,14.97
2019-05-16T09:30:57.900Z,14.96
2019-05-16T09:32:08.857Z,14.97
2019-05-16T09:34:57.510Z,15.12
2019-05-16T09:35:57.593Z,15.14
2019-05-16T09:37:00.608Z,15.11
2019-05-16T09:38:57.766Z,15.23
2019-05-16T09:39:57.291Z,15.30
2019-05-16T09:40:57.138Z,15.36
2019-05-16T09:42:56.896Z,15.50
2019-05-16T09:43:59.279Z,15.62
2019-05-16T09:44:57.699Z,15.55
2019-05-16T09:46:03.411Z,15.69
2019-05-16T09:47:57.384Z,15.67
2019-05-16T09:50:57.634Z,15.90
2019-05-16T09:51:56.805Z,15.80
2019-05-16T09:52:56.587Z,15.76
2019-05-16T09:54:57.763Z,15.96
2019-05-16T09:55:57.647Z,16.03
2019-05-16T09:56:57.162Z,16.10
2019-05-16T09:58:57.458Z,16.24
2019-05-16T09:59:57.305Z,16.28
2019-05-16T10:00:57.487Z,16.29
2019-05-16T10:03:55.221Z,16.41
2019-05-16T10:04:57.754Z,16.43
2019-05-16T10:05:57.166Z,16.47
2019-05-16T10:06:57.292Z,16.57
2019-05-16T10:07:57.365Z,16.58
2019-05-16T10:08:56.930Z,16.62
2019-05-16T10:09:57.182Z,16.64
2019-05-16T10:10:56.997Z,16.66
2019-05-16T10:12:08.304Z,16.66
2019-05-16T10:12:54.836Z,16.59
2019-05-16T10:13:54.797Z,16.65
2019-05-16T10:14:54.754Z,16.73
2019-05-16T10:15:54.712Z,16.74
2019-05-16T10:16:54.667Z,16.91
2019-05-16T10:18:56.752Z,16.99
2019-05-16T10:19:56.480Z,17.02
2019-05-16T10:20:58.940Z,17.12
2019-05-16T10:21:59.956Z,17.23
2019-05-16T10:22:54.406Z,17.30
2019-05-16T10:23:56.334Z,17.44
2019-05-16T10:24:54.316Z,17.54
2019-05-16T10:25:56.697Z,17.68
2019-05-16T10:26:54.378Z,17.73
2019-05-16T10:27:54.187Z,17.82
2019-05-16T10:28:54.142Z,17.73
2019-05-16T10:29:54.095Z,17.66
2019-05-16T10:30:56.656Z,17.73
2019-05-16T10:31:54.008Z,17.73
2019-05-16T10:32:53.963Z,17.87
2019-05-16T10:33:53.923Z,17.91
2019-05-16T10:34:53.877Z,18.11
2019-05-16T10:35:53.837Z,18.13
2019-05-16T10:36:53.791Z,18.31
2019-05-16T10:37:53.746Z,18.36
2019-05-16T10:38:53.703Z,18.33
2019-05-16T10:39:53.660Z,18.42
2019-05-16T10:40:53.616Z,18.42
2019-05-16T10:41:53.567Z,18.55
2019-05-16T10:42:53.530Z,18.60
2019-05-16T10:43:53.482Z,18.61
2019-05-16T10:44:53.436Z,18.76
2019-05-16T10:45:53.788Z,19.01
2019-05-16T10:46:53.356Z,19.11
2019-05-16T10:47:53.315Z,19.27
2019-05-16T10:48:53.266Z,19.45
2019-05-16T10:49:53.224Z,19.47
2019-05-16T10:50:53.297Z,19.52
2019-05-16T10:51:53.137Z,19.57
2019-05-16T10:53:20.453Z,19.64
2019-05-16T10:54:08.269Z,19.75
2019-05-16T10:55:03.982Z,19.84
2019-05-16T10:55:53.009Z,19.90
2019-05-16T10:56:53.149Z,19.81
2019-05-16T11:00:09.296Z,20.27
2019-05-16T11:01:26.977Z,20.24
2019-05-16T11:01:59.964Z,20.26
2019-05-16T11:02:59.954Z,20.39
2019-05-16T11:03:59.877Z,20.52
2019-05-16T11:05:14.368Z,20.82
2019-05-16T11:06:05.585Z,20.77
2019-05-16T11:06:59.750Z,20.95
2019-05-16T11:07:59.877Z,21.11
2019-05-16T11:08:59.668Z,21.23
2019-05-16T11:10:03.493Z,21.35
2019-05-16T11:10:59.583Z,21.47
2019-05-16T11:11:59.534Z,21.65
2019-05-16T11:12:59.904Z,21.80
2019-05-16T11:13:59.452Z,21.91
2019-05-16T11:14:59.410Z,21.84
2019-05-16T11:15:59.369Z,21.83
2019-05-16T11:16:59.326Z,21.75
2019-05-16T11:17:59.999Z,21.69
2019-05-16T11:19:13.738Z,21.70
2019-05-16T11:19:59.197Z,21.70
2019-05-16T11:20:59.154Z,21.91
2019-05-16T11:21:59.125Z,22.06
2019-05-16T11:22:59.070Z,22.10
2019-05-16T11:23:59.026Z,22.22
2019-05-16T11:24:58.984Z,22.40
2019-05-16T11:25:58.963Z,22.40
2019-05-16T11:26:58.905Z,22.23
2019-05-16T11:27:58.868Z,22.12
2019-05-16T11:28:58.820Z,22.08
2019-05-16T11:29:58.778Z,22.19
2019-05-16T11:31:03.244Z,22.26
2019-05-16T11:31:58.695Z,22.28
2019-05-16T11:32:58.658Z,22.34
2019-05-16T11:33:58.610Z,22.33
2019-05-16T11:34:58.574Z,22.25
2019-05-16T11:35:58.529Z,22.22
2019-05-16T11:36:58.486Z,22.00
2019-05-16T11:37:58.451Z,22.01
2019-05-16T11:39:01.773Z,21.88
2019-05-16T11:39:58.359Z,21.69
2019-05-16T11:40:58.320Z,21.62
2019-05-16T11:41:58.275Z,21.43
2019-05-16T11:43:09.996Z,21.43
2019-05-16T11:43:58.193Z,21.35
2019-05-16T11:44:58.324Z,21.38
2019-05-16T11:45:58.110Z,21.37
2019-05-16T11:46:58.067Z,21.54
2019-05-16T11:47:58.022Z,21.54
2019-05-16T11:48:57.984Z,21.59
2019-05-16T11:49:57.943Z,21.66
2019-05-16T11:50:57.900Z,21.58
2019-05-16T11:51:58.005Z,21.35
2019-05-16T11:52:57.814Z,21.45
2019-05-16T11:53:59.976Z,21.30
2019-05-16T11:54:57.754Z,21.25
2019-05-16T11:56:01.456Z,21.22
2019-05-16T11:56:57.647Z,21.23
2019-05-16T11:57:57.605Z,21.17
2019-05-16T11:58:57.564Z,21.13
2019-05-16T11:59:57.519Z,21.10
2019-05-16T12:00:57.719Z,21.44
2019-05-16T12:01:57.435Z,21.84
2019-05-16T12:02:57.391Z,22.04
2019-05-16T12:03:57.671Z,22.07
2019-05-16T12:04:57.872Z,22.30
2019-05-16T12:05:57.957Z,22.36
2019-05-16T12:06:57.465Z,22.07
2019-05-16T12:07:57.476Z,22.16
2019-05-16T12:08:57.138Z,22.16
2019-05-16T12:09:57.097Z,22.28
2019-05-16T12:10:57.055Z,22.99
2019-05-16T12:12:04.264Z,23.02
2019-05-16T12:12:56.974Z,23.16
2019-05-16T12:13:56.930Z,23.48
2019-05-16T12:14:58.377Z,24.00
2019-05-16T12:15:56.843Z,24.32
2019-05-16T12:16:57.013Z,23.92
2019-05-16T12:20:03.940Z,23.06
2019-05-16T12:21:03.903Z,23.11
2019-05-16T12:22:06.861Z,24.18
2019-05-16T12:23:03.832Z,24.74
2019-05-16T12:24:03.767Z,24.78
2019-05-16T12:25:03.732Z,24.99
2019-05-16T12:26:03.685Z,24.68
2019-05-16T12:27:03.646Z,24.25
2019-05-16T12:28:03.608Z,24.16
2019-05-16T12:29:03.562Z,23.95
2019-05-16T12:30:03.626Z,23.77
2019-05-16T12:31:03.481Z,23.54
2019-05-16T12:32:03.678Z,23.34
2019-05-16T12:35:03.309Z,22.84
2019-05-16T12:36:03.271Z,22.76
2019-05-16T12:37:03.229Z,22.73
2019-05-16T12:38:03.187Z,22.58
2019-05-16T12:39:03.149Z,22.44
2019-05-16T12:40:03.195Z,22.49
2019-05-16T12:41:03.068Z,22.38
2019-05-16T12:42:03.023Z,22.31
2019-05-16T12:43:02.977Z,22.08
2019-05-16T12:44:02.935Z,22.01
2019-05-16T12:45:02.904Z,21.85
2019-05-16T12:46:02.864Z,21.72
2019-05-16T12:47:02.817Z,21.66
2019-05-16T12:48:02.771Z,21.63
2019-05-16T12:49:02.730Z,21.54
2019-05-16T12:50:02.689Z,21.58
2019-05-16T12:51:02.665Z,21.41
2019-05-16T12:52:02.605Z,21.43
2019-05-16T12:53:02.566Z,21.35
2019-05-16T12:54:02.539Z,21.35
2019-05-16T12:55:02.476Z,21.30
2019-05-16T12:56:02.505Z,21.11
2019-05-16T12:57:02.414Z,21.01
2019-05-16T12:58:12.769Z,20.85
2019-05-16T12:59:02.311Z,20.80
2019-05-16T13:00:02.268Z,20.71
2019-05-16T13:01:02.223Z,20.67
2019-05-16T13:02:02.214Z,20.50
2019-05-16T13:03:02.141Z,20.48
2019-05-16T13:04:02.099Z,20.30
2019-05-16T13:05:02.111Z,20.19
2019-05-16T13:06:02.015Z,20.18
2019-05-16T13:07:01.997Z,19.99
2019-05-16T13:08:01.928Z,19.85
2019-05-16T13:09:01.914Z,19.71
2019-05-16T13:10:01.841Z,19.48
2019-05-16T13:11:01.826Z,19.39
2019-05-16T13:12:01.756Z,19.35
2019-05-16T13:13:01.762Z,19.26
2019-05-16T13:14:06.664Z,19.08
2019-05-16T13:15:01.631Z,18.94
2019-05-16T13:16:01.590Z,18.79
2019-05-16T13:17:01.545Z,18.83
2019-05-16T13:18:01.502Z,18.68
2019-05-16T13:19:01.458Z,18.67
2019-05-16T13:20:01.415Z,18.57
2019-05-16T13:21:01.372Z,18.42
2019-05-16T13:22:01.327Z,18.34
2019-05-16T13:23:01.302Z,18.28
2019-05-16T13:24:01.239Z,18.41
2019-05-16T13:25:01.198Z,18.28
2019-05-16T13:26:01.157Z,18.24
2019-05-16T13:27:01.110Z,18.31
2019-05-16T13:28:01.065Z,18.08
2019-05-16T13:29:01.027Z,18.05
2019-05-16T13:30:00.985Z,17.90
2019-05-16T13:31:00.938Z,17.80
2019-05-16T13:32:00.896Z,17.78
2019-05-16T13:33:00.849Z,17.73
2019-05-16T13:34:00.806Z,17.71
2019-05-16T13:35:00.762Z,17.71
2019-05-16T13:36:00.717Z,17.80
2019-05-16T13:37:00.671Z,17.75
2019-05-16T13:38:00.631Z,17.86
2019-05-16T13:39:00.589Z,17.79
2019-05-16T13:40:00.547Z,17.88
2019-05-16T13:41:00.504Z,17.98
2019-05-16T13:42:00.453Z,18.16
2019-05-16T13:43:00.411Z,18.36
2019-05-16T13:44:14.225Z,18.58
2019-05-16T13:45:00.327Z,18.78
2019-05-16T13:46:00.282Z,18.97
2019-05-16T13:47:00.237Z,19.23
2019-05-16T13:48:00.201Z,19.53
2019-05-16T13:49:00.151Z,19.56
2019-05-16T13:50:00.103Z,19.92
2019-05-16T13:52:00.019Z,19.93
2019-05-16T13:52:59.974Z,19.77
2019-05-16T13:53:59.933Z,19.85
2019-05-16T13:54:59.892Z,19.97
2019-05-16T13:55:59.845Z,19.99
2019-05-16T13:56:59.799Z,19.97
2019-05-16T13:57:59.758Z,19.99
2019-05-16T13:58:59.724Z,19.97
2019-05-16T13:59:59.672Z,19.89
2019-05-16T14:00:59.629Z,19.74
2019-05-16T14:01:59.599Z,19.57
2019-05-16T14:02:59.543Z,19.42
2019-05-16T14:03:59.498Z,19.34
2019-05-16T14:04:59.455Z,19.34
2019-05-16T14:05:59.412Z,19.17
2019-05-16T14:06:59.373Z,19.30
2019-05-16T14:07:59.330Z,19.24
2019-05-16T14:08:59.284Z,19.27
2019-05-16T14:09:59.241Z,19.24
2019-05-16T14:11:01.663Z,19.29
2019-05-16T14:11:59.155Z,19.26
2019-05-16T14:12:59.111Z,19.26
2019-05-16T14:13:59.079Z,19.26
2019-05-16T14:14:59.048Z,19.29
2019-05-16T14:15:58.985Z,19.26
2019-05-16T14:16:58.938Z,19.07
2019-05-16T14:17:58.896Z,18.97
2019-05-16T14:18:58.855Z,18.94
2019-05-16T14:19:58.810Z,18.82
2019-05-16T14:20:58.765Z,18.71
2019-05-16T14:21:58.733Z,18.58
2019-05-16T14:23:01.663Z,18.46
2019-05-16T14:23:58.637Z,18.37
2019-05-16T14:24:58.592Z,18.24
2019-05-16T14:25:58.551Z,18.05
2019-05-16T14:26:58.506Z,17.97
2019-05-16T14:27:58.468Z,17.82
2019-05-16T14:28:58.416Z,17.90
2019-05-16T14:29:58.375Z,17.90
2019-05-16T14:30:58.332Z,17.78
2019-05-16T14:31:58.288Z,17.76
2019-05-16T14:33:01.180Z,17.78
2019-05-16T14:33:58.199Z,17.66
2019-05-16T14:34:59.073Z,17.66
2019-05-16T14:35:58.114Z,17.56
2019-05-16T14:36:58.067Z,17.54
2019-05-16T14:38:00.840Z,17.49
2019-05-16T14:38:57.994Z,17.54
2019-05-16T14:40:01.393Z,17.53
2019-05-16T14:40:57.899Z,17.57
2019-05-16T14:41:57.864Z,17.56
2019-05-16T14:42:58.261Z,17.56
2019-05-16T14:43:57.761Z,17.69
2019-05-16T14:45:09.947Z,17.59
2019-05-16T14:45:57.678Z,17.60
2019-05-16T14:46:57.636Z,17.46
2019-05-16T14:47:58.038Z,17.46
2019-05-16T14:48:57.551Z,17.46
2019-05-16T14:49:57.532Z,17.42
2019-05-16T14:50:57.622Z,17.37
2019-05-16T14:51:58.079Z,17.42
2019-05-16T14:52:57.370Z,17.37
2019-05-16T14:53:57.419Z,17.38
2019-05-16T14:54:57.580Z,17.42
2019-05-16T14:55:57.814Z,17.53
2019-05-16T14:57:01.084Z,17.57
2019-05-16T14:57:57.158Z,17.60
2019-05-16T14:58:57.789Z,17.59
2019-05-16T14:59:57.089Z,17.56
2019-05-16T15:00:57.680Z,17.60
2019-05-16T15:02:56.930Z,17.50
2019-05-16T15:03:56.881Z,17.46
2019-05-16T15:04:57.043Z,17.49
2019-05-16T15:05:58.969Z,17.47
2019-05-16T15:06:57.345Z,17.50
2019-05-16T15:08:56.834Z,17.46
2019-05-16T15:09:56.681Z,17.44
2019-05-16T15:10:57.430Z,17.42
2019-05-16T15:11:58.069Z,17.30
2019-05-16T15:12:57.038Z,17.28
2019-05-16T15:13:57.434Z,17.41
2019-05-16T15:14:58.796Z,17.32
2019-05-16T15:16:57.598Z,17.32
2019-05-16T15:17:56.790Z,17.24
2019-05-16T15:18:57.593Z,17.28
2019-05-16T15:19:57.131Z,17.38
2019-05-16T15:20:57.518Z,17.28
2019-05-16T15:21:56.997Z,17.23
2019-05-16T15:22:56.742Z,17.23
2019-05-16T15:23:59.398Z,17.16
2019-05-16T15:24:59.107Z,17.13
2019-05-16T15:25:55.911Z,17.09
2019-05-16T15:26:57.802Z,17.07
2019-05-16T15:27:57.603Z,16.95
2019-05-16T15:28:58.394Z,17.01
2019-05-16T15:29:57.696Z,16.98
2019-05-16T15:30:57.478Z,16.89
2019-05-16T15:31:57.382Z,16.84
2019-05-16T15:32:56.938Z,16.83
2019-05-16T15:33:57.231Z,16.80
2019-05-16T15:34:57.132Z,16.84
2019-05-16T15:35:57.759Z,16.89
2019-05-16T15:36:56.498Z,16.91
2019-05-16T15:37:58.784Z,17.05
2019-05-16T15:38:56.689Z,17.09
2019-05-16T15:39:55.301Z,17.22
2019-05-16T15:41:00.058Z,17.24
2019-05-16T15:41:56.604Z,17.28
2019-05-16T15:42:58.836Z,17.20
2019-05-16T15:43:58.995Z,17.22
2019-05-16T15:44:55.082Z,17.17
2019-05-16T15:46:00.465Z,17.19
2019-05-16T15:46:56.690Z,17.02
2019-05-16T15:47:59.671Z,16.91
2019-05-16T15:48:57.011Z,16.94
2019-05-16T15:49:56.614Z,16.89
2019-05-16T15:50:59.486Z,16.84
2019-05-16T15:51:56.579Z,16.84
2019-05-16T15:52:58.900Z,16.72
2019-05-16T15:53:57.086Z,16.68
2019-05-16T15:54:54.636Z,16.55
2019-05-16T15:55:54.578Z,16.41
2019-05-16T15:56:54.537Z,16.29
2019-05-16T15:57:54.489Z,16.25
2019-05-16T15:58:54.445Z,16.28
2019-05-16T15:59:54.400Z,16.10
2019-05-16T16:00:54.353Z,16.16
2019-05-16T16:01:54.312Z,16.13
2019-05-16T16:02:54.275Z,16.12
2019-05-16T16:03:54.220Z,16.03
2019-05-16T16:04:54.177Z,16.05
2019-05-16T16:05:54.133Z,16.00
2019-05-16T16:06:54.105Z,15.96
2019-05-16T16:07:54.043Z,15.92
2019-05-16T16:08:54.007Z,15.91
2019-05-16T16:10:53.909Z,15.84
2019-05-16T16:11:53.863Z,15.88
2019-05-16T16:12:53.819Z,15.87
2019-05-16T16:13:53.781Z,15.80
2019-05-16T16:14:53.732Z,15.80
2019-05-16T16:15:54.579Z,15.80
2019-05-16T16:16:53.641Z,15.72
2019-05-16T16:17:53.605Z,15.76
2019-05-16T16:18:53.553Z,15.72
2019-05-16T16:19:53.613Z,15.66
2019-05-16T16:20:53.461Z,15.76
2019-05-16T16:21:53.413Z,15.69
2019-05-16T16:22:53.373Z,15.69